createdAt,value
2022-09-10T00:00:43.576Z,20.84
2022-09-10T00:03:11.391Z,20.85
2022-09-10T00:05:45.041Z,20.84
2022-09-10T00:08:12.732Z,20.84
2022-09-10T00:10:40.597Z,20.84
2022-09-10T00:13:09.577Z,20.83
2022-09-10T00:15:39.971Z,20.83
2022-09-10T00:18:08.861Z,20.82
2022-09-10T00:20:36.516Z,20.82
2022-09-10T00:23:04.031Z,20.82
2022-09-10T00:25:32.806Z,20.81
2022-09-10T00:28:00.981Z,20.82
2022-09-10T00:30:29.894Z,20.81
2022-09-10T00:32:57.465Z,20.81
2022-09-10T00:35:24.994Z,20.80
2022-09-10T00:37:52.565Z,20.81
2022-09-10T00:40:20.332Z,20.81
2022-09-10T00:42:47.857Z,20.81
2022-09-10T00:45:18.452Z,20.80
2022-09-10T00:47:47.721Z,20.81
2022-09-10T00:50:19.561Z,20.79
2022-09-10T00:52:48.033Z,20.79
2022-09-10T00:55:15.839Z,20.79
2022-09-10T00:57:43.484Z,20.79
2022-09-10T01:00:12.296Z,20.78
2022-09-10T01:02:39.805Z,20.78
2022-09-10T01:05:10.001Z,20.78
2022-09-10T01:07:37.586Z,20.78
2022-09-10T01:10:07.381Z,20.78
2022-09-10T01:12:47.317Z,20.77
2022-09-10T01:15:20.943Z,20.77
2022-09-10T01:17:58.763Z,20.76
2022-09-10T01:20:51.045Z,20.77
2022-09-10T01:23:47.915Z,20.77
2022-09-10T01:26:24.986Z,20.76
2022-09-10T01:28:56.856Z,20.76
2022-09-10T01:31:26.597Z,20.75
2022-09-10T01:33:57.121Z,20.76
2022-09-10T01:36:26.274Z,20.76
2022-09-10T01:38:53.849Z,20.75
2022-09-10T01:41:22.098Z,20.75
2022-09-10T01:43:49.641Z,20.75
2022-09-10T01:46:25.128Z,20.74
2022-09-10T01:49:03.590Z,20.75
2022-09-10T01:51:36.844Z,20.75
2022-09-10T01:54:12.297Z,20.75
2022-09-10T01:56:42.298Z,20.73
2022-09-10T01:59:14.452Z,20.73
2022-09-10T02:01:44.741Z,20.73
2022-09-10T02:04:14.346Z,20.73
2022-09-10T02:06:43.340Z,20.73
2022-09-10T02:09:10.946Z,20.73
2022-09-10T02:11:44.981Z,20.73
2022-09-10T02:14:14.081Z,20.72
2022-09-10T02:16:45.218Z,20.73
2022-09-10T02:19:12.764Z,20.72
2022-09-10T02:21:40.304Z,20.71
2022-09-10T02:24:09.927Z,20.72
2022-09-10T02:26:38.318Z,20.72
2022-09-10T02:29:06.153Z,20.70
2022-09-10T02:31:33.675Z,20.71
2022-09-10T02:34:03.226Z,20.71
2022-09-10T02:36:31.766Z,20.69
2022-09-10T02:38:59.328Z,20.71
2022-09-10T02:41:27.483Z,20.68
2022-09-10T02:43:55.389Z,20.69
2022-09-10T02:46:22.936Z,20.69
2022-09-10T02:48:50.457Z,20.68
2022-09-10T02:51:19.417Z,20.68
2022-09-10T02:53:46.934Z,20.69
2022-09-10T02:56:15.205Z,20.68
2022-09-10T02:58:43.098Z,20.68
2022-09-10T03:01:12.714Z,20.67
2022-09-10T03:03:40.305Z,20.67
2022-09-10T03:06:08.380Z,20.67
2022-09-10T03:08:37.382Z,20.67
2022-09-10T03:11:05.768Z,20.67
2022-09-10T03:13:33.429Z,20.66
2022-09-10T03:16:02.973Z,20.66
2022-09-10T03:18:30.928Z,20.66
2022-09-10T03:21:08.820Z,20.66
2022-09-10T03:23:37.786Z,20.66
2022-09-10T03:26:06.095Z,20.66
2022-09-10T03:28:33.942Z,20.66
2022-09-10T03:31:01.889Z,20.65
2022-09-10T03:33:29.430Z,20.65
2022-09-10T03:35:56.966Z,20.66
2022-09-10T03:38:25.158Z,20.65
2022-09-10T03:40:54.140Z,20.65
2022-09-10T03:43:22.326Z,20.64
2022-09-10T03:45:50.173Z,20.64
2022-09-10T03:48:17.948Z,20.64
2022-09-10T03:50:45.577Z,20.63
2022-09-10T03:53:13.177Z,20.64
2022-09-10T03:55:40.720Z,20.64
2022-09-10T03:58:10.042Z,20.64
2022-09-10T04:00:37.569Z,20.63
2022-09-10T04:03:05.308Z,20.62
2022-09-10T04:05:33.008Z,20.64
2022-09-10T04:08:01.880Z,20.64
2022-09-10T04:10:29.702Z,20.63
2022-09-10T04:12:57.252Z,20.62
2022-09-10T04:15:26.259Z,20.63
2022-09-10T04:17:54.962Z,20.62
2022-09-10T04:20:22.529Z,20.62
2022-09-10T04:22:51.360Z,20.62
2022-09-10T04:25:19.184Z,20.62
2022-09-10T04:27:46.717Z,20.62
2022-09-10T04:30:14.689Z,20.61
2022-09-10T04:32:44.313Z,20.61
2022-09-10T04:35:15.211Z,20.60
2022-09-10T04:37:43.045Z,20.59
2022-09-10T04:40:11.148Z,20.61
2022-09-10T04:42:38.797Z,20.60
2022-09-10T04:45:07.330Z,20.60
2022-09-10T04:47:34.976Z,20.60
2022-09-10T04:50:04.065Z,20.60
2022-09-10T04:52:31.573Z,20.59
2022-09-10T04:54:59.651Z,20.59
2022-09-10T04:57:27.873Z,20.58
2022-09-10T04:59:55.674Z,20.58
2022-09-10T05:02:23.205Z,20.58
2022-09-10T05:04:50.798Z,20.58
2022-09-10T05:07:19.693Z,20.58
2022-09-10T05:09:47.237Z,20.58
2022-09-10T05:12:15.332Z,20.57
2022-09-10T05:14:42.865Z,20.56
2022-09-10T05:17:10.393Z,20.57
2022-09-10T05:19:37.948Z,20.56
2022-09-10T05:22:05.565Z,20.55
2022-09-10T05:24:35.019Z,20.56
2022-09-10T05:27:02.539Z,20.55
2022-09-10T05:29:30.077Z,20.56
2022-09-10T05:31:57.736Z,20.56
2022-09-10T05:34:25.564Z,20.55
2022-09-10T05:36:53.089Z,20.54
2022-09-10T05:39:20.705Z,20.56
2022-09-10T05:41:49.597Z,20.55
2022-09-10T05:44:17.520Z,20.55
2022-09-10T05:46:45.044Z,20.55
2022-09-10T05:49:13.039Z,20.55
2022-09-10T05:51:40.581Z,20.54
2022-09-10T05:54:08.201Z,20.55
2022-09-10T05:56:35.809Z,20.55
2022-09-10T05:59:05.530Z,20.54
2022-09-10T06:01:33.089Z,20.54
2022-09-10T06:04:00.673Z,20.54
2022-09-10T06:06:28.263Z,20.53
2022-09-10T06:08:55.834Z,20.54
2022-09-10T06:11:23.478Z,20.53
2022-09-10T06:13:51.002Z,20.53
2022-09-10T06:16:20.125Z,20.53
2022-09-10T06:18:47.680Z,20.53
2022-09-10T06:21:16.094Z,20.53
2022-09-10T06:23:43.642Z,20.52
2022-09-10T06:26:12.601Z,20.52
2022-09-10T06:28:40.371Z,20.53
2022-09-10T06:31:08.290Z,20.52
2022-09-10T06:33:37.250Z,20.52
2022-09-10T06:36:05.039Z,20.51
2022-09-10T06:38:33.586Z,20.53
2022-09-10T06:41:06.036Z,20.51
2022-09-10T06:43:36.135Z,20.52
2022-09-10T06:46:05.117Z,20.51
2022-09-10T06:48:38.612Z,20.51
2022-09-10T06:51:17.408Z,20.51
2022-09-10T06:53:46.014Z,20.51
2022-09-10T06:56:13.767Z,20.50
2022-09-10T06:58:41.648Z,20.50
2022-09-10T07:01:12.824Z,20.50
2022-09-10T07:03:40.364Z,20.50
2022-09-10T07:06:10.562Z,20.50
2022-09-10T07:08:40.233Z,20.49
2022-09-10T07:11:11.230Z,20.49
2022-09-10T07:13:38.755Z,20.50
2022-09-10T07:16:06.840Z,20.50
2022-09-10T07:18:34.421Z,20.51
2022-09-10T07:21:08.844Z,20.50
2022-09-10T07:23:36.477Z,20.50
2022-09-10T07:26:06.260Z,20.49
2022-09-10T07:28:33.821Z,20.50
2022-09-10T07:31:18.217Z,20.49
2022-09-10T07:33:46.933Z,20.49
2022-09-10T07:36:14.645Z,20.48
2022-09-10T07:38:42.441Z,20.49
2022-09-10T07:41:12.177Z,20.47
2022-09-10T07:43:39.900Z,20.48
2022-09-10T07:46:07.671Z,20.48
2022-09-10T07:48:35.306Z,20.48
2022-09-10T07:51:03.558Z,20.47
2022-09-10T07:53:31.197Z,20.47
2022-09-10T07:56:02.714Z,20.46
2022-09-10T07:58:32.171Z,20.47
2022-09-10T08:01:00.596Z,20.47
2022-09-10T08:03:28.219Z,20.47
2022-09-10T08:05:55.822Z,20.46
2022-09-10T08:08:24.201Z,20.47
2022-09-10T08:10:51.981Z,20.47
2022-09-10T08:13:20.052Z,20.46
2022-09-10T08:15:48.955Z,20.46
2022-09-10T08:18:17.167Z,20.46
2022-09-10T08:20:44.715Z,20.48
2022-09-10T08:23:12.228Z,20.46
2022-09-10T08:25:40.137Z,20.47
2022-09-10T08:28:08.435Z,20.46
2022-09-10T08:30:36.261Z,20.46
2022-09-10T08:33:05.205Z,20.47
2022-09-10T08:35:32.757Z,20.48
2022-09-10T08:38:00.286Z,20.46
2022-09-10T08:40:29.132Z,20.47
2022-09-10T08:42:56.639Z,20.46
2022-09-10T08:45:25.741Z,20.46
2022-09-10T08:47:55.800Z,20.45
2022-09-10T08:50:28.585Z,20.47
2022-09-10T08:52:58.355Z,20.48
2022-09-10T08:55:27.910Z,20.48
2022-09-10T08:57:56.377Z,20.49
2022-09-10T09:00:24.766Z,20.48
2022-09-10T09:02:56.497Z,20.47
2022-09-10T09:05:28.109Z,20.47
2022-09-10T09:07:55.636Z,20.48
2022-09-10T09:10:30.154Z,20.49
2022-09-10T09:13:16.097Z,20.49
2022-09-10T09:15:49.504Z,20.52
2022-09-10T09:18:19.528Z,20.51
2022-09-10T09:20:49.793Z,20.52
2022-09-10T09:23:22.173Z,20.51
2022-09-10T09:25:50.817Z,20.51
2022-09-10T09:28:23.121Z,20.52
2022-09-10T09:30:50.712Z,20.52
2022-09-10T09:33:20.964Z,20.51
2022-09-10T09:35:52.457Z,20.51
2022-09-10T09:38:22.200Z,20.51
2022-09-10T09:40:50.558Z,20.50
2022-09-10T09:43:24.557Z,20.51
2022-09-10T09:45:53.318Z,20.50
2022-09-10T09:48:21.477Z,20.51
2022-09-10T09:50:51.530Z,20.51
2022-09-10T09:53:21.832Z,20.49
2022-09-10T09:55:51.485Z,20.50
2022-09-10T09:58:33.485Z,20.50
2022-09-10T10:01:23.519Z,20.50
2022-09-10T10:04:00.756Z,20.50
2022-09-10T10:06:30.979Z,20.49
2022-09-10T10:09:00.207Z,20.49
2022-09-10T10:11:42.482Z,20.49
2022-09-10T10:14:27.116Z,20.50
2022-09-10T10:17:00.433Z,20.49
2022-09-10T10:19:31.155Z,20.49
2022-09-10T10:22:09.502Z,20.50
2022-09-10T10:24:37.093Z,20.50
2022-09-10T10:27:04.835Z,20.50
2022-09-10T10:29:32.510Z,20.51
2022-09-10T10:32:05.499Z,20.50
2022-09-10T10:34:41.929Z,20.50
2022-09-10T10:37:15.972Z,20.50
2022-09-10T10:40:02.263Z,20.50
2022-09-10T10:42:31.110Z,20.50
2022-09-10T10:45:30.989Z,20.50
2022-09-10T10:48:04.452Z,20.50
2022-09-10T10:50:38.266Z,20.50
2022-09-10T10:53:25.521Z,20.49
2022-09-10T10:55:57.626Z,20.50
2022-09-10T10:58:37.531Z,20.50
2022-09-10T11:01:07.648Z,20.49
2022-09-10T11:03:36.585Z,20.51
2022-09-10T11:06:05.502Z,20.49
2022-09-10T11:08:35.694Z,20.50
2022-09-10T11:11:05.842Z,20.51
2022-09-10T11:13:37.773Z,20.51
2022-09-10T11:16:07.238Z,20.51
2022-09-10T11:18:36.078Z,20.51
2022-09-10T11:21:06.862Z,20.52
2022-09-10T11:23:38.019Z,20.51
2022-09-10T11:26:07.407Z,20.52
2022-09-10T11:28:36.815Z,20.50
2022-09-10T11:31:09.751Z,20.52
2022-09-10T11:33:39.406Z,20.51
2022-09-10T11:36:11.436Z,20.49
2022-09-10T11:38:45.621Z,20.51
2022-09-10T11:41:17.482Z,20.52
2022-09-10T11:43:48.353Z,20.52
2022-09-10T11:46:16.624Z,20.52
2022-09-10T11:48:46.988Z,20.51
2022-09-10T11:51:17.668Z,20.52
2022-09-10T11:53:46.573Z,20.52
2022-09-10T11:56:32.457Z,20.52
2022-09-10T11:59:09.568Z,20.53
2022-09-10T12:01:55.042Z,20.52
2022-09-10T12:04:40.414Z,20.52
2022-09-10T12:07:12.104Z,20.51
2022-09-10T12:09:43.654Z,20.52
2022-09-10T12:12:14.065Z,20.52
2022-09-10T12:14:41.751Z,20.52
2022-09-10T12:17:12.015Z,20.52
2022-09-10T12:19:40.857Z,20.52
2022-09-10T12:22:09.233Z,20.52
2022-09-10T12:24:37.345Z,20.53
2022-09-10T12:27:07.031Z,20.54
2022-09-10T12:29:35.865Z,20.53
2022-09-10T12:32:37.648Z,20.53
2022-09-10T12:35:44.893Z,20.53
2022-09-10T12:38:50.932Z,20.53
2022-09-10T12:41:59.629Z,20.53
2022-09-10T12:44:56.173Z,20.53
2022-09-10T12:47:50.143Z,20.53
2022-09-10T12:50:46.164Z,20.53
2022-09-10T12:53:51.367Z,20.53
2022-09-10T12:56:26.188Z,20.53
2022-09-10T12:59:00.586Z,20.52
2022-09-10T13:01:39.999Z,20.52
2022-09-10T13:04:20.609Z,20.52
2022-09-10T13:06:48.319Z,20.52
2022-09-10T13:09:37.061Z,20.51
2022-09-10T13:12:08.113Z,20.52
2022-09-10T13:14:38.049Z,20.51
2022-09-10T13:17:07.241Z,20.52
2022-09-10T13:19:51.497Z,20.51
2022-09-10T13:22:34.833Z,20.52
2022-09-10T13:25:07.145Z,20.51
2022-09-10T13:27:39.684Z,20.51
2022-09-10T13:30:19.312Z,20.52
2022-09-10T13:32:52.107Z,20.52
2022-09-10T13:35:59.620Z,20.51
2022-09-10T13:38:39.474Z,20.52
2022-09-10T13:41:20.230Z,20.52
2022-09-10T13:44:10.064Z,20.51
2022-09-10T13:46:38.576Z,20.52
2022-09-10T13:49:08.809Z,20.51
2022-09-10T13:51:37.236Z,20.52
2022-09-10T13:54:08.229Z,20.52
2022-09-10T13:56:35.721Z,20.53
2022-09-10T13:59:03.265Z,20.52
2022-09-10T14:01:49.427Z,20.52
2022-09-10T14:04:26.571Z,20.52
2022-09-10T14:06:55.546Z,20.53
2022-09-10T14:09:23.068Z,20.53
2022-09-10T14:11:50.581Z,20.52
2022-09-10T14:14:19.696Z,20.53
2022-09-10T14:16:48.648Z,20.53
2022-09-10T14:19:17.865Z,20.54
2022-09-10T14:21:49.310Z,20.52
2022-09-10T14:24:30.626Z,20.53
2022-09-10T14:27:13.886Z,20.54
2022-09-10T14:29:42.229Z,20.53
2022-09-10T14:32:29.217Z,20.54
2022-09-10T14:34:57.260Z,20.52
2022-09-10T14:37:32.066Z,20.53
2022-09-10T14:40:03.965Z,20.54
2022-09-10T14:42:34.068Z,20.53
2022-09-10T14:45:01.738Z,20.53
2022-09-10T14:47:33.494Z,20.52
2022-09-10T14:50:26.675Z,20.52
2022-09-10T14:52:55.590Z,20.53
2022-09-10T14:55:25.159Z,20.52
2022-09-10T14:57:53.013Z,20.53
2022-09-10T15:00:20.596Z,20.52
2022-09-10T15:02:50.480Z,20.51
2022-09-10T15:05:18.345Z,20.51
2022-09-10T15:07:47.296Z,20.50
2022-09-10T15:10:16.974Z,20.50
2022-09-10T15:12:46.915Z,20.51
2022-09-10T15:15:17.401Z,20.51
2022-09-10T15:17:45.346Z,20.51
2022-09-10T15:20:14.440Z,20.51
2022-09-10T15:22:42.150Z,20.54
2022-09-10T15:25:14.088Z,20.61
2022-09-10T15:27:43.630Z,20.65
2022-09-10T15:30:11.681Z,20.69
2022-09-10T15:32:39.193Z,20.72
2022-09-10T15:35:07.281Z,20.73
2022-09-10T15:37:34.841Z,20.73
2022-09-10T15:40:02.966Z,20.72
2022-09-10T15:42:31.151Z,20.71
2022-09-10T15:45:00.042Z,20.71
2022-09-10T15:47:27.613Z,20.70
2022-09-10T15:49:56.248Z,20.69
2022-09-10T15:52:23.885Z,20.69
2022-09-10T15:54:51.422Z,20.66
2022-09-10T15:57:18.975Z,20.67
2022-09-10T15:59:46.962Z,20.71
2022-09-10T16:02:15.837Z,20.77
2022-09-10T16:04:43.357Z,20.83
2022-09-10T16:07:10.922Z,20.89
2022-09-10T16:09:38.715Z,20.96
2022-09-10T16:12:06.573Z,21.03
2022-09-10T16:14:34.328Z,21.11
2022-09-10T16:17:02.312Z,21.17
2022-09-10T16:19:31.216Z,21.21
2022-09-10T16:21:58.753Z,21.27
2022-09-10T16:24:26.289Z,21.31
2022-09-10T16:26:54.145Z,21.35
2022-09-10T16:29:21.831Z,21.41
2022-09-10T16:31:50.114Z,21.44
2022-09-10T16:34:18.619Z,21.47
2022-09-10T16:36:48.703Z,21.50
2022-09-10T16:39:16.593Z,21.53
2022-09-10T16:41:45.048Z,21.55
2022-09-10T16:44:12.790Z,21.57
2022-09-10T16:46:40.504Z,21.58
2022-09-10T16:49:12.373Z,21.59
2022-09-10T16:51:40.205Z,21.58
2022-09-10T16:54:09.069Z,21.55
2022-09-10T16:56:37.806Z,21.50
2022-09-10T16:59:07.444Z,21.46
2022-09-10T17:01:35.334Z,21.42
2022-09-10T17:04:04.224Z,21.36
2022-09-10T17:06:32.157Z,21.32
2022-09-10T17:09:00.557Z,21.26
2022-09-10T17:11:31.437Z,21.24
2022-09-10T17:14:01.100Z,21.22
2022-09-10T17:16:30.456Z,21.18
2022-09-10T17:18:58.759Z,21.15
2022-09-10T17:21:26.572Z,21.13
2022-09-10T17:23:54.425Z,21.14
2022-09-10T17:26:22.295Z,21.16
2022-09-10T17:28:54.924Z,21.20
2022-09-10T17:31:22.913Z,21.24
2022-09-10T17:33:50.485Z,21.25
2022-09-10T17:36:18.495Z,21.30
2022-09-10T17:38:46.038Z,21.33
2022-09-10T17:41:14.483Z,21.34
2022-09-10T17:43:42.687Z,21.37
2022-09-10T17:46:12.264Z,21.40
2022-09-10T17:48:39.934Z,21.43
2022-09-10T17:51:07.534Z,21.45
2022-09-10T17:53:35.515Z,21.52
2022-09-10T17:56:04.691Z,21.53
2022-09-10T17:58:33.159Z,21.53
2022-09-10T18:01:01.163Z,21.56
2022-09-10T18:03:31.439Z,21.56
2022-09-10T18:06:03.860Z,21.57
2022-09-10T18:08:32.115Z,21.59
2022-09-10T18:11:04.420Z,21.59
2022-09-10T18:13:32.124Z,21.61
2022-09-10T18:15:59.772Z,21.62
2022-09-10T18:18:28.010Z,21.64
2022-09-10T18:20:56.901Z,21.66
2022-09-10T18:23:24.484Z,21.67
2022-09-10T18:25:52.559Z,21.66
2022-09-10T18:28:20.112Z,21.67
2022-09-10T18:30:47.636Z,21.69
2022-09-10T18:33:15.156Z,21.66
2022-09-10T18:35:42.957Z,21.64
2022-09-10T18:38:11.897Z,21.65
2022-09-10T18:40:39.429Z,21.64
2022-09-10T18:43:06.952Z,21.65
2022-09-10T18:45:34.538Z,21.66
2022-09-10T18:48:02.063Z,21.64
2022-09-10T18:50:29.617Z,21.61
2022-09-10T18:52:57.172Z,21.59
2022-09-10T18:55:26.080Z,21.57
2022-09-10T18:57:53.694Z,21.50
2022-09-10T19:00:21.248Z,21.44
2022-09-10T19:02:49.313Z,21.39
2022-09-10T19:05:17.083Z,21.35
2022-09-10T19:07:45.010Z,21.29
2022-09-10T19:10:12.568Z,21.26
2022-09-10T19:12:41.518Z,21.23
2022-09-10T19:15:10.098Z,21.20
2022-09-10T19:17:37.652Z,21.19
2022-09-10T19:20:06.269Z,21.15
2022-09-10T19:22:33.835Z,21.13
2022-09-10T19:25:01.921Z,21.10
2022-09-10T19:27:32.087Z,21.08
2022-09-10T19:30:00.971Z,21.05
2022-09-10T19:32:47.383Z,21.04
2022-09-10T19:35:14.965Z,20.99
2022-09-10T19:37:42.501Z,20.99
2022-09-10T19:40:11.821Z,20.98
2022-09-10T19:42:39.493Z,20.95
2022-09-10T19:45:10.370Z,20.94
2022-09-10T19:47:37.965Z,20.92
2022-09-10T19:50:06.342Z,20.92
2022-09-10T19:52:33.898Z,20.91
2022-09-10T19:55:01.425Z,20.90
2022-09-10T19:57:29.078Z,20.87
2022-09-10T19:59:56.625Z,20.86
2022-09-10T20:02:25.549Z,20.85
2022-09-10T20:04:53.258Z,20.84
2022-09-10T20:07:21.559Z,20.83
2022-09-10T20:09:49.565Z,20.82
2022-09-10T20:12:17.168Z,20.80
2022-09-10T20:14:44.685Z,20.79
2022-09-10T20:17:12.373Z,20.78
2022-09-10T20:19:41.270Z,20.78
2022-09-10T20:22:08.804Z,20.77
2022-09-10T20:24:37.070Z,20.76
2022-09-10T20:27:04.959Z,20.75
2022-09-10T20:29:32.723Z,20.75
2022-09-10T20:32:00.363Z,20.73
2022-09-10T20:34:27.941Z,20.71
2022-09-10T20:36:56.838Z,20.70
2022-09-10T20:39:25.102Z,20.69
2022-09-10T20:41:52.658Z,20.68
2022-09-10T20:44:20.732Z,20.69
2022-09-10T20:46:48.308Z,20.67
2022-09-10T20:49:16.247Z,20.66
2022-09-10T20:51:44.281Z,20.67
2022-09-10T20:54:13.832Z,20.65
2022-09-10T20:56:42.085Z,20.64
2022-09-10T20:59:09.703Z,20.64
2022-09-10T21:01:37.367Z,20.63
2022-09-10T21:04:05.016Z,20.63
2022-09-10T21:06:33.417Z,20.62
2022-09-10T21:09:01.052Z,20.61
2022-09-10T21:11:30.953Z,20.61
2022-09-10T21:13:59.340Z,20.61
2022-09-10T21:16:27.936Z,20.60
2022-09-10T21:18:56.249Z,20.58
2022-09-10T21:21:25.552Z,20.58
2022-09-10T21:23:53.927Z,20.58
2022-09-10T21:26:23.198Z,20.56
2022-09-10T21:28:53.132Z,20.56
2022-09-10T21:31:20.715Z,20.55
2022-09-10T21:33:48.305Z,20.55
2022-09-10T21:36:16.885Z,20.56
2022-09-10T21:38:47.438Z,20.55
2022-09-10T21:41:16.109Z,20.55
2022-09-10T21:43:44.057Z,20.54
2022-09-10T21:46:13.476Z,20.53
2022-09-10T21:48:41.244Z,20.54
2022-09-10T21:51:11.586Z,20.52
2022-09-10T21:53:39.537Z,20.53
2022-09-10T21:56:07.629Z,20.51
2022-09-10T21:58:36.110Z,20.52
2022-09-10T22:01:03.794Z,20.52
2022-09-10T22:03:33.546Z,20.50
2022-09-10T22:06:06.247Z,20.50
2022-09-10T22:08:34.137Z,20.49
2022-09-10T22:11:05.825Z,20.49
2022-09-10T22:13:33.924Z,20.48
2022-09-10T22:16:01.508Z,20.48
2022-09-10T22:18:29.509Z,20.47
2022-09-10T22:21:00.683Z,20.48
2022-09-10T22:23:29.777Z,20.46
2022-09-10T22:26:03.817Z,20.47
2022-09-10T22:28:34.938Z,20.45
2022-09-10T22:31:07.965Z,20.45
2022-09-10T22:33:35.577Z,20.44
2022-09-10T22:36:12.282Z,20.43
2022-09-10T22:38:40.081Z,20.44
2022-09-10T22:41:10.118Z,20.42
2022-09-10T22:43:38.327Z,20.43
2022-09-10T22:46:06.878Z,20.42
2022-09-10T22:48:35.224Z,20.41
2022-09-10T22:51:02.933Z,20.42
2022-09-10T22:53:31.843Z,20.40
2022-09-10T22:55:59.379Z,20.40
2022-09-10T22:58:28.020Z,20.40
2022-09-10T23:00:55.961Z,20.40
2022-09-10T23:03:23.528Z,20.40
2022-09-10T23:05:51.076Z,20.40
2022-09-10T23:08:18.731Z,20.38
2022-09-10T23:10:47.644Z,20.39
2022-09-10T23:13:15.185Z,20.38
2022-09-10T23:15:43.003Z,20.39
2022-09-10T23:18:11.167Z,20.37
2022-09-10T23:20:38.710Z,20.38
2022-09-10T23:23:06.241Z,20.36
2022-09-10T23:25:36.078Z,20.37
2022-09-10T23:28:07.365Z,20.35
2022-09-10T23:30:35.865Z,20.35
2022-09-10T23:33:03.417Z,20.35
2022-09-10T23:35:30.948Z,20.35
2022-09-10T23:37:58.453Z,20.34
2022-09-10T23:40:31.092Z,20.34
2022-09-10T23:43:01.113Z,20.34
2022-09-10T23:45:30.221Z,20.33
2022-09-10T23:47:57.969Z,20.34
2022-09-10T23:50:25.530Z,20.33
2022-09-10T23:52:53.081Z,20.32
2022-09-10T23:55:20.664Z,20.31
2022-09-10T23:57:48.198Z,20.32
